sensor_id;sensor_type;location;lat;lon;timestamp;P1;durP1;ratioP1;P2;durP2;ratioP2
44000;SDS011;29660;42.892;24.710;2023-01-09T00:00:54;80.55;;;47.78;;
44000;SDS011;29660;42.892;24.710;2023-01-09T00:05:56;91.03;;;54.63;;
44000;SDS011;29660;42.892;24.710;2023-01-09T00:10:58;74.07;;;46.70;;
44000;SDS011;29660;42.892;24.710;2023-01-09T00:16:00;64.13;;;41.78;;
44000;SDS011;29660;42.892;24.710;2023-01-09T00:21:03;32.67;;;20.83;;
44000;SDS011;29660;42.892;24.710;2023-01-09T00:31:11;50.10;;;31.77;;
44000;SDS011;29660;42.892;24.710;2023-01-09T00:36:14;44.03;;;27.63;;
44000;SDS011;29660;42.892;24.710;2023-01-09T00:41:17;45.08;;;27.02;;
44000;SDS011;29660;42.892;24.710;2023-01-09T00:46:28;51.88;;;32.15;;
44000;SDS011;29660;42.892;24.710;2023-01-09T00:51:33;34.80;;;21.83;;
44000;SDS011;29660;42.892;24.710;2023-01-09T00:56:36;38.00;;;24.25;;
44000;SDS011;29660;42.892;24.710;2023-01-09T01:01:38;36.60;;;22.52;;
44000;SDS011;29660;42.892;24.710;2023-01-09T01:06:40;31.70;;;20.77;;
44000;SDS011;29660;42.892;24.710;2023-01-09T01:12:08;29.48;;;20.23;;
44000;SDS011;29660;42.892;24.710;2023-01-09T01:17:10;66.00;;;37.47;;
44000;SDS011;29660;42.892;24.710;2023-01-09T01:22:13;58.72;;;32.92;;
44000;SDS011;29660;42.892;24.710;2023-01-09T01:27:15;34.83;;;22.25;;
44000;SDS011;29660;42.892;24.710;2023-01-09T01:32:17;31.58;;;20.88;;
44000;SDS011;29660;42.892;24.710;2023-01-09T01:37:19;30.92;;;19.95;;
44000;SDS011;29660;42.892;24.710;2023-01-09T01:42:22;64.97;;;37.25;;
44000;SDS011;29660;42.892;24.710;2023-01-09T01:48:08;118.10;;;69.47;;
44000;SDS011;29660;42.892;24.710;2023-01-09T01:52:58;118.68;;;66.20;;
44000;SDS011;29660;42.892;24.710;2023-01-09T01:58:12;45.40;;;25.35;;
44000;SDS011;29660;42.892;24.710;2023-01-09T02:03:16;66.68;;;37.92;;
44000;SDS011;29660;42.892;24.710;2023-01-09T02:08:20;81.15;;;43.25;;
44000;SDS011;29660;42.892;24.710;2023-01-09T02:13:23;110.78;;;57.38;;
44000;SDS011;29660;42.892;24.710;2023-01-09T02:18:46;174.20;;;89.53;;
44000;SDS011;29660;42.892;24.710;2023-01-09T02:29:25;277.58;;;128.48;;
44000;SDS011;29660;42.892;24.710;2023-01-09T02:40:11;42.53;;;24.17;;
44000;SDS011;29660;42.892;24.710;2023-01-09T02:45:19;54.83;;;30.02;;
44000;SDS011;29660;42.892;24.710;2023-01-09T03:06:55;25.67;;;14.88;;
44000;SDS011;29660;42.892;24.710;2023-01-09T03:12:07;25.15;;;15.38;;
44000;SDS011;29660;42.892;24.710;2023-01-09T03:17:27;32.00;;;17.48;;
44000;SDS011;29660;42.892;24.710;2023-01-09T03:22:35;42.17;;;23.77;;
44000;SDS011;29660;42.892;24.710;2023-01-09T03:27:40;50.60;;;27.88;;
44000;SDS011;29660;42.892;24.710;2023-01-09T03:32:42;62.45;;;37.13;;
44000;SDS011;29660;42.892;24.710;2023-01-09T03:37:44;43.25;;;26.88;;
44000;SDS011;29660;42.892;24.710;2023-01-09T03:42:46;45.85;;;28.73;;
44000;SDS011;29660;42.892;24.710;2023-01-09T03:47:48;48.80;;;28.40;;
44000;SDS011;29660;42.892;24.710;2023-01-09T03:52:53;47.47;;;28.95;;
44000;SDS011;29660;42.892;24.710;2023-01-09T03:57:55;46.47;;;27.42;;
44000;SDS011;29660;42.892;24.710;2023-01-09T04:02:57;35.35;;;21.83;;
44000;SDS011;29660;42.892;24.710;2023-01-09T04:07:59;47.65;;;28.10;;
44000;SDS011;29660;42.892;24.710;2023-01-09T04:13:01;39.83;;;24.25;;
44000;SDS011;29660;42.892;24.710;2023-01-09T04:18:03;36.38;;;23.48;;
44000;SDS011;29660;42.892;24.710;2023-01-09T04:23:06;55.70;;;31.35;;
44000;SDS011;29660;42.892;24.710;2023-01-09T04:28:26;100.50;;;52.80;;
44000;SDS011;29660;42.892;24.710;2023-01-09T04:33:28;59.10;;;29.15;;
44000;SDS011;29660;42.892;24.710;2023-01-09T04:38:30;38.20;;;18.33;;
44000;SDS011;29660;42.892;24.710;2023-01-09T04:43:32;103.32;;;57.28;;
44000;SDS011;29660;42.892;24.710;2023-01-09T04:48:34;55.67;;;34.75;;
44000;SDS011;29660;42.892;24.710;2023-01-09T04:53:36;68.57;;;41.17;;
44000;SDS011;29660;42.892;24.710;2023-01-09T04:58:38;72.13;;;48.08;;
44000;SDS011;29660;42.892;24.710;2023-01-09T05:03:40;89.68;;;53.30;;
44000;SDS011;29660;42.892;24.710;2023-01-09T05:08:42;96.88;;;33.53;;
44000;SDS011;29660;42.892;24.710;2023-01-09T05:13:44;81.82;;;46.00;;
44000;SDS011;29660;42.892;24.710;2023-01-09T05:18:46;71.15;;;42.17;;
44000;SDS011;29660;42.892;24.710;2023-01-09T05:23:48;71.43;;;41.60;;
44000;SDS011;29660;42.892;24.710;2023-01-09T05:28:51;66.35;;;39.90;;
44000;SDS011;29660;42.892;24.710;2023-01-09T05:33:54;91.60;;;51.70;;
44000;SDS011;29660;42.892;24.710;2023-01-09T05:38:56;92.95;;;53.25;;
44000;SDS011;29660;42.892;24.710;2023-01-09T05:44:03;84.70;;;49.25;;
44000;SDS011;29660;42.892;24.710;2023-01-09T05:49:05;104.65;;;60.22;;
44000;SDS011;29660;42.892;24.710;2023-01-09T05:54:07;118.38;;;72.10;;
44000;SDS011;29660;42.892;24.710;2023-01-09T05:59:09;161.63;;;90.63;;
44000;SDS011;29660;42.892;24.710;2023-01-09T06:04:11;133.45;;;79.32;;
44000;SDS011;29660;42.892;24.710;2023-01-09T06:09:13;136.02;;;81.32;;
44000;SDS011;29660;42.892;24.710;2023-01-09T06:14:15;175.00;;;103.10;;
44000;SDS011;29660;42.892;24.710;2023-01-09T06:19:17;238.75;;;147.63;;
44000;SDS011;29660;42.892;24.710;2023-01-09T06:24:19;130.95;;;85.78;;
44000;SDS011;29660;42.892;24.710;2023-01-09T06:29:40;140.50;;;81.80;;
44000;SDS011;29660;42.892;24.710;2023-01-09T06:34:42;239.45;;;114.90;;
44000;SDS011;29660;42.892;24.710;2023-01-09T06:39:44;123.70;;;71.03;;
44000;SDS011;29660;42.892;24.710;2023-01-09T06:44:46;160.52;;;99.50;;
44000;SDS011;29660;42.892;24.710;2023-01-09T06:49:48;122.15;;;79.47;;
44000;SDS011;29660;42.892;24.710;2023-01-09T06:54:51;102.53;;;62.03;;
44000;SDS011;29660;42.892;24.710;2023-01-09T06:59:52;93.75;;;63.90;;
44000;SDS011;29660;42.892;24.710;2023-01-09T07:04:55;101.00;;;68.60;;
44000;SDS011;29660;42.892;24.710;2023-01-09T07:09:57;106.68;;;73.45;;
44000;SDS011;29660;42.892;24.710;2023-01-09T07:14:59;121.85;;;77.00;;
44000;SDS011;29660;42.892;24.710;2023-01-09T07:20:01;129.80;;;84.63;;
44000;SDS011;29660;42.892;24.710;2023-01-09T07:25:03;134.60;;;86.93;;
44000;SDS011;29660;42.892;24.710;2023-01-09T07:30:06;143.07;;;92.05;;
44000;SDS011;29660;42.892;24.710;2023-01-09T07:35:09;140.43;;;93.72;;
44000;SDS011;29660;42.892;24.710;2023-01-09T07:40:11;139.73;;;94.80;;
44000;SDS011;29660;42.892;24.710;2023-01-09T07:45:13;153.18;;;98.70;;
44000;SDS011;29660;42.892;24.710;2023-01-09T07:50:15;135.85;;;91.60;;
44000;SDS011;29660;42.892;24.710;2023-01-09T07:55:17;158.90;;;102.78;;
44000;SDS011;29660;42.892;24.710;2023-01-09T08:00:19;111.43;;;80.60;;
44000;SDS011;29660;42.892;24.710;2023-01-09T08:05:21;131.23;;;81.43;;
44000;SDS011;29660;42.892;24.710;2023-01-09T08:10:23;119.70;;;77.95;;
44000;SDS011;29660;42.892;24.710;2023-01-09T08:15:26;113.63;;;77.93;;
44000;SDS011;29660;42.892;24.710;2023-01-09T08:20:28;139.68;;;86.05;;
44000;SDS011;29660;42.892;24.710;2023-01-09T08:25:30;125.97;;;87.70;;
44000;SDS011;29660;42.892;24.710;2023-01-09T08:30:32;115.45;;;81.80;;
44000;SDS011;29660;42.892;24.710;2023-01-09T08:35:34;107.72;;;73.80;;
44000;SDS011;29660;42.892;24.710;2023-01-09T08:40:37;99.00;;;68.78;;
44000;SDS011;29660;42.892;24.710;2023-01-09T08:45:39;101.97;;;71.88;;
44000;SDS011;29660;42.892;24.710;2023-01-09T08:51:00;95.50;;;67.97;;
44000;SDS011;29660;42.892;24.710;2023-01-09T08:56:02;97.47;;;69.45;;
44000;SDS011;29660;42.892;24.710;2023-01-09T09:01:05;93.78;;;65.85;;
44000;SDS011;29660;42.892;24.710;2023-01-09T09:06:08;77.45;;;51.50;;
44000;SDS011;29660;42.892;24.710;2023-01-09T09:11:10;40.10;;;26.17;;
44000;SDS011;29660;42.892;24.710;2023-01-09T09:16:12;32.05;;;22.05;;
44000;SDS011;29660;42.892;24.710;2023-01-09T09:21:14;51.47;;;34.60;;
44000;SDS011;29660;42.892;24.710;2023-01-09T09:26:16;37.45;;;26.35;;
44000;SDS011;29660;42.892;24.710;2023-01-09T09:31:18;48.28;;;30.65;;
44000;SDS011;29660;42.892;24.710;2023-01-09T09:36:20;46.22;;;30.20;;
44000;SDS011;29660;42.892;24.710;2023-01-09T09:46:50;45.85;;;26.48;;
44000;SDS011;29660;42.892;24.710;2023-01-09T09:52:03;50.80;;;20.50;;
44000;SDS011;29660;42.892;24.710;2023-01-09T09:57:15;55.17;;;19.30;;
44000;SDS011;29660;42.892;24.710;2023-01-09T10:02:28;52.42;;;22.80;;
44000;SDS011;29660;42.892;24.710;2023-01-09T10:07:41;32.63;;;16.05;;
44000;SDS011;29660;42.892;24.710;2023-01-09T10:12:50;21.45;;;10.43;;
44000;SDS011;29660;42.892;24.710;2023-01-09T10:39:04;10.32;;;5.82;;
44000;SDS011;29660;42.892;24.710;2023-01-09T10:49:19;9.82;;;5.43;;
44000;SDS011;29660;42.892;24.710;2023-01-09T10:54:24;15.15;;;10.25;;
44000;SDS011;29660;42.892;24.710;2023-01-09T10:59:26;18.00;;;11.57;;
44000;SDS011;29660;42.892;24.710;2023-01-09T11:04:35;15.05;;;9.70;;
44000;SDS011;29660;42.892;24.710;2023-01-09T11:10:02;19.08;;;13.70;;
44000;SDS011;29660;42.892;24.710;2023-01-09T11:20:25;9.25;;;6.72;;
44000;SDS011;29660;42.892;24.710;2023-01-09T11:25:28;12.13;;;7.57;;
44000;SDS011;29660;42.892;24.710;2023-01-09T11:30:37;9.15;;;6.85;;
44000;SDS011;29660;42.892;24.710;2023-01-09T11:40:58;7.25;;;5.88;;
44000;SDS011;29660;42.892;24.710;2023-01-09T11:46:03;13.43;;;9.70;;
44000;SDS011;29660;42.892;24.710;2023-01-09T11:56:42;14.43;;;8.13;;
44000;SDS011;29660;42.892;24.710;2023-01-09T12:23:48;24.38;;;14.20;;
44000;SDS011;29660;42.892;24.710;2023-01-09T12:56:10;10.23;;;6.85;;
44000;SDS011;29660;42.892;24.710;2023-01-09T13:01:20;15.43;;;11.75;;
44000;SDS011;29660;42.892;24.710;2023-01-09T13:06:25;16.17;;;7.53;;
44000;SDS011;29660;42.892;24.710;2023-01-09T13:17:03;15.60;;;9.82;;
44000;SDS011;29660;42.892;24.710;2023-01-09T13:22:09;11.27;;;8.25;;
44000;SDS011;29660;42.892;24.710;2023-01-09T13:27:16;14.30;;;10.13;;
44000;SDS011;29660;42.892;24.710;2023-01-09T13:32:33;15.57;;;11.75;;
44000;SDS011;29660;42.892;24.710;2023-01-09T13:37:48;17.92;;;10.90;;
44000;SDS011;29660;42.892;24.710;2023-01-09T14:03:38;18.35;;;13.88;;
44000;SDS011;29660;42.892;24.710;2023-01-09T14:08:39;14.82;;;9.70;;
44000;SDS011;29660;42.892;24.710;2023-01-09T14:14:02;13.38;;;10.88;;
44000;SDS011;29660;42.892;24.710;2023-01-09T14:24:21;20.23;;;15.43;;
44000;SDS011;29660;42.892;24.710;2023-01-09T14:29:39;29.00;;;19.85;;
44000;SDS011;29660;42.892;24.710;2023-01-09T14:34:44;31.55;;;18.30;;
44000;SDS011;29660;42.892;24.710;2023-01-09T14:39:49;46.63;;;31.88;;
44000;SDS011;29660;42.892;24.710;2023-01-09T14:49:58;153.82;;;94.63;;
44000;SDS011;29660;42.892;24.710;2023-01-09T14:56:16;130.18;;;90.25;;
44000;SDS011;29660;42.892;24.710;2023-01-09T15:00:45;177.55;;;123.00;;
44000;SDS011;29660;42.892;24.710;2023-01-09T15:06:09;142.85;;;101.75;;
44000;SDS011;29660;42.892;24.710;2023-01-09T15:11:16;112.38;;;83.30;;
44000;SDS011;29660;42.892;24.710;2023-01-09T15:16:24;117.80;;;86.68;;
44000;SDS011;29660;42.892;24.710;2023-01-09T15:21:28;147.55;;;114.22;;
44000;SDS011;29660;42.892;24.710;2023-01-09T15:26:31;119.75;;;97.28;;
44000;SDS011;29660;42.892;24.710;2023-01-09T15:31:33;131.85;;;97.07;;
44000;SDS011;29660;42.892;24.710;2023-01-09T15:36:35;115.25;;;86.50;;
44000;SDS011;29660;42.892;24.710;2023-01-09T15:41:38;131.80;;;98.45;;
44000;SDS011;29660;42.892;24.710;2023-01-09T15:47:07;263.13;;;199.47;;
44000;SDS011;29660;42.892;24.710;2023-01-09T15:52:17;197.85;;;155.30;;
44000;SDS011;29660;42.892;24.710;2023-01-09T16:02:25;230.30;;;178.15;;
44000;SDS011;29660;42.892;24.710;2023-01-09T16:07:46;305.27;;;243.63;;
44000;SDS011;29660;42.892;24.710;2023-01-09T16:12:51;237.15;;;193.25;;
44000;SDS011;29660;42.892;24.710;2023-01-09T16:18:54;218.95;;;175.25;;
44000;SDS011;29660;42.892;24.710;2023-01-09T16:23:30;238.18;;;187.13;;
44000;SDS011;29660;42.892;24.710;2023-01-09T16:28:36;245.55;;;184.88;;
44000;SDS011;29660;42.892;24.710;2023-01-09T16:33:45;215.93;;;162.45;;
44000;SDS011;29660;42.892;24.710;2023-01-09T16:38:51;229.75;;;172.18;;
44000;SDS011;29660;42.892;24.710;2023-01-09T16:43:54;288.92;;;206.30;;
44000;SDS011;29660;42.892;24.710;2023-01-09T16:48:56;512.88;;;304.92;;
44000;SDS011;29660;42.892;24.710;2023-01-09T16:54:00;410.05;;;262.02;;
44000;SDS011;29660;42.892;24.710;2023-01-09T16:59:02;266.83;;;192.88;;
44000;SDS011;29660;42.892;24.710;2023-01-09T17:04:13;251.85;;;177.82;;
44000;SDS011;29660;42.892;24.710;2023-01-09T17:09:18;249.40;;;177.70;;
44000;SDS011;29660;42.892;24.710;2023-01-09T17:14:22;227.57;;;164.10;;
44000;SDS011;29660;42.892;24.710;2023-01-09T17:19:24;309.33;;;227.30;;
44000;SDS011;29660;42.892;24.710;2023-01-09T17:24:26;252.32;;;184.57;;
44000;SDS011;29660;42.892;24.710;2023-01-09T17:29:47;432.15;;;218.55;;
44000;SDS011;29660;42.892;24.710;2023-01-09T17:34:49;422.50;;;232.77;;
44000;SDS011;29660;42.892;24.710;2023-01-09T17:39:51;582.15;;;309.67;;
44000;SDS011;29660;42.892;24.710;2023-01-09T17:44:53;578.97;;;334.70;;
44000;SDS011;29660;42.892;24.710;2023-01-09T17:49:57;505.75;;;291.45;;
44000;SDS011;29660;42.892;24.710;2023-01-09T17:54:58;352.48;;;228.13;;
44000;SDS011;29660;42.892;24.710;2023-01-09T18:00:05;385.05;;;244.52;;
44000;SDS011;29660;42.892;24.710;2023-01-09T18:05:08;301.63;;;198.43;;
44000;SDS011;29660;42.892;24.710;2023-01-09T18:10:14;319.73;;;212.00;;
44000;SDS011;29660;42.892;24.710;2023-01-09T18:15:19;260.15;;;175.73;;
44000;SDS011;29660;42.892;24.710;2023-01-09T18:20:23;176.57;;;110.13;;
44000;SDS011;29660;42.892;24.710;2023-01-09T18:25:26;161.60;;;109.32;;
44000;SDS011;29660;42.892;24.710;2023-01-09T18:30:28;210.30;;;142.75;;
44000;SDS011;29660;42.892;24.710;2023-01-09T18:35:32;248.90;;;176.20;;
44000;SDS011;29660;42.892;24.710;2023-01-09T18:40:34;339.05;;;223.88;;
44000;SDS011;29660;42.892;24.710;2023-01-09T18:45:37;269.70;;;177.23;;
44000;SDS011;29660;42.892;24.710;2023-01-09T18:50:39;241.40;;;162.52;;
44000;SDS011;29660;42.892;24.710;2023-01-09T18:55:41;270.58;;;185.77;;
44000;SDS011;29660;42.892;24.710;2023-01-09T19:00:43;267.23;;;189.82;;
44000;SDS011;29660;42.892;24.710;2023-01-09T19:05:46;278.17;;;204.57;;
44000;SDS011;29660;42.892;24.710;2023-01-09T19:10:51;280.90;;;203.20;;
44000;SDS011;29660;42.892;24.710;2023-01-09T19:15:54;253.32;;;186.02;;
44000;SDS011;29660;42.892;24.710;2023-01-09T19:20:57;263.42;;;186.20;;
44000;SDS011;29660;42.892;24.710;2023-01-09T19:26:02;258.08;;;183.45;;
44000;SDS011;29660;42.892;24.710;2023-01-09T19:31:06;287.15;;;211.27;;
44000;SDS011;29660;42.892;24.710;2023-01-09T19:36:08;274.80;;;197.93;;
44000;SDS011;29660;42.892;24.710;2023-01-09T19:41:11;225.13;;;152.43;;
44000;SDS011;29660;42.892;24.710;2023-01-09T19:46:17;254.80;;;175.15;;
44000;SDS011;29660;42.892;24.710;2023-01-09T19:51:20;175.18;;;122.55;;
44000;SDS011;29660;42.892;24.710;2023-01-09T19:56:23;187.25;;;136.82;;
44000;SDS011;29660;42.892;24.710;2023-01-09T20:01:29;155.95;;;114.05;;
44000;SDS011;29660;42.892;24.710;2023-01-09T20:06:33;178.18;;;125.40;;
44000;SDS011;29660;42.892;24.710;2023-01-09T20:11:35;179.45;;;127.00;;
44000;SDS011;29660;42.892;24.710;2023-01-09T20:16:37;506.38;;;355.60;;
44000;SDS011;29660;42.892;24.710;2023-01-09T20:21:40;213.57;;;153.63;;
44000;SDS011;29660;42.892;24.710;2023-01-09T20:26:43;218.55;;;153.90;;
44000;SDS011;29660;42.892;24.710;2023-01-09T20:31:46;239.55;;;166.60;;
44000;SDS011;29660;42.892;24.710;2023-01-09T20:36:48;182.68;;;127.82;;
44000;SDS011;29660;42.892;24.710;2023-01-09T20:41:50;90.28;;;58.58;;
44000;SDS011;29660;42.892;24.710;2023-01-09T20:46:52;91.70;;;60.40;;
44000;SDS011;29660;42.892;24.710;2023-01-09T20:51:54;108.28;;;75.78;;
44000;SDS011;29660;42.892;24.710;2023-01-09T20:56:56;60.22;;;40.63;;
44000;SDS011;29660;42.892;24.710;2023-01-09T21:01:58;103.25;;;71.47;;
44000;SDS011;29660;42.892;24.710;2023-01-09T21:07:00;97.00;;;67.35;;
44000;SDS011;29660;42.892;24.710;2023-01-09T21:12:02;90.20;;;63.20;;
44000;SDS011;29660;42.892;24.710;2023-01-09T21:17:24;79.50;;;56.10;;
44000;SDS011;29660;42.892;24.710;2023-01-09T21:22:26;19.15;;;13.25;;
44000;SDS011;29660;42.892;24.710;2023-01-09T21:27:28;16.33;;;12.35;;
44000;SDS011;29660;42.892;24.710;2023-01-09T21:32:36;40.47;;;29.50;;
44000;SDS011;29660;42.892;24.710;2023-01-09T21:37:38;9.55;;;7.10;;
44000;SDS011;29660;42.892;24.710;2023-01-09T21:42:40;14.40;;;9.73;;
44000;SDS011;29660;42.892;24.710;2023-01-09T21:48:01;29.95;;;20.95;;
44000;SDS011;29660;42.892;24.710;2023-01-09T21:53:04;23.25;;;17.00;;
44000;SDS011;29660;42.892;24.710;2023-01-09T21:58:06;18.92;;;12.90;;
44000;SDS011;29660;42.892;24.710;2023-01-09T22:03:12;9.77;;;8.50;;
44000;SDS011;29660;42.892;24.710;2023-01-09T22:13:18;9.05;;;7.75;;
44000;SDS011;29660;42.892;24.710;2023-01-09T22:18:20;10.43;;;8.00;;
44000;SDS011;29660;42.892;24.710;2023-01-09T22:23:23;15.88;;;12.07;;
44000;SDS011;29660;42.892;24.710;2023-01-09T22:28:25;10.35;;;8.43;;
44000;SDS011;29660;42.892;24.710;2023-01-09T22:33:27;12.68;;;9.70;;
44000;SDS011;29660;42.892;24.710;2023-01-09T22:38:28;9.18;;;6.55;;
44000;SDS011;29660;42.892;24.710;2023-01-09T22:43:31;10.15;;;7.47;;
44000;SDS011;29660;42.892;24.710;2023-01-09T22:48:33;10.48;;;7.65;;
44000;SDS011;29660;42.892;24.710;2023-01-09T22:53:35;13.00;;;10.07;;
44000;SDS011;29660;42.892;24.710;2023-01-09T22:58:37;11.57;;;8.48;;
44000;SDS011;29660;42.892;24.710;2023-01-09T23:03:39;11.27;;;9.40;;
44000;SDS011;29660;42.892;24.710;2023-01-09T23:08:41;10.88;;;8.52;;
44000;SDS011;29660;42.892;24.710;2023-01-09T23:13:44;10.02;;;7.75;;
44000;SDS011;29660;42.892;24.710;2023-01-09T23:18:45;16.05;;;13.85;;
44000;SDS011;29660;42.892;24.710;2023-01-09T23:23:47;7.43;;;5.95;;
44000;SDS011;29660;42.892;24.710;2023-01-09T23:28:49;8.60;;;7.20;;
44000;SDS011;29660;42.892;24.710;2023-01-09T23:33:51;7.53;;;6.50;;
44000;SDS011;29660;42.892;24.710;2023-01-09T23:38:53;10.77;;;7.95;;
44000;SDS011;29660;42.892;24.710;2023-01-09T23:43:55;8.27;;;6.85;;
44000;SDS011;29660;42.892;24.710;2023-01-09T23:48:57;9.10;;;7.72;;
44000;SDS011;29660;42.892;24.710;2023-01-09T23:53:59;9.18;;;6.88;;
44000;SDS011;29660;42.892;24.710;2023-01-09T23:59:03;8.27;;;7.32;;
